Time;durP1;ratioP1;P1;durP2;ratioP2;P2;SDS_P1;SDS_P2;PMS_P1;PMS_P2;Temp;Humidity;BMP_temperature;BMP_pressure;BME280_temperature;BME280_humidity;BME280_pressure;Samples;Min_cycle;Max_cycle;Signal;HPM_P1;HPM_P2
2022/11/27 00:00:56;;;;;;;10.25;2.30;;;6.30;99.90;;;;;;5053832;28;20095;-65
2022/11/27 00:03:22;;;;;;;5.30;2.38;;;6.20;99.90;;;;;;5054185;28;20052;-65
2022/11/27 00:05:57;;;;;;;10.35;2.28;;;6.30;99.90;;;;;;5053815;28;20087;-65
2022/11/27 00:08:24;;;;;;;8.70;2.40;;;6.20;99.90;;;;;;5054095;28;20064;-65
2022/11/27 00:10:49;;;;;;;4.15;2.33;;;6.30;99.90;;;;;;5054034;28;20075;-65
2022/11/27 00:13:15;;;;;;;3.88;2.03;;;6.60;99.90;;;;;;5052991;28;20073;-65
2022/11/27 00:15:41;;;;;;;3.65;2.35;;;6.30;99.90;;;;;;5053710;28;20052;-65
2022/11/27 00:18:07;;;;;;;8.05;2.30;;;6.20;99.90;;;;;;5053935;28;20029;-65
2022/11/27 00:20:33;;;;;;;4.25;2.22;;;6.40;99.90;;;;;;5052990;28;20077;-65
2022/11/27 00:22:59;;;;;;;7.28;2.28;;;6.20;99.90;;;;;;5053316;28;20130;-65
2022/11/27 00:25:24;;;;;;;10.38;2.85;;;6.20;99.90;;;;;;5053825;28;20048;-65
2022/11/27 00:27:50;;;;;;;6.13;2.65;;;6.20;99.90;;;;;;5053814;28;20037;-65
2022/11/27 00:30:16;;;;;;;5.28;3.03;;;6.20;99.90;;;;;;5053627;28;20078;-65
2022/11/27 00:32:41;;;;;;;4.43;2.22;;;6.20;99.90;;;;;;5035631;28;20376;-65
2022/11/27 00:35:07;;;;;;;6.63;3.35;;;6.20;99.90;;;;;;5035585;28;20112;-65
2022/11/27 00:37:33;;;;;;;6.25;2.40;;;6.20;99.90;;;;;;5035541;28;20116;-65
2022/11/27 00:39:59;;;;;;;10.70;3.00;;;6.20;99.90;;;;;;5053415;28;20123;-65
2022/11/27 00:42:24;;;;;;;5.22;2.10;;;6.10;99.90;;;;;;5053169;28;20102;-65
2022/11/27 00:44:50;;;;;;;5.68;2.03;;;6.10;99.90;;;;;;5053582;28;20037;-65
2022/11/27 00:47:16;;;;;;;9.27;2.00;;;6.10;99.90;;;;;;5053501;28;20084;-65
2022/11/27 00:49:41;;;;;;;6.55;2.40;;;6.20;99.90;;;;;;5053465;28;20041;-65
2022/11/27 00:52:07;;;;;;;6.22;2.70;;;6.10;99.90;;;;;;5053339;28;20416;-65
2022/11/27 00:54:33;;;;;;;4.78;2.63;;;6.20;99.90;;;;;;5053419;28;20099;-65
2022/11/27 00:56:59;;;;;;;11.43;2.92;;;6.20;99.90;;;;;;5053362;28;20036;-65
2022/11/27 00:59:25;;;;;;;15.95;2.55;;;6.20;99.90;;;;;;5053395;28;20041;-65
2022/11/27 01:01:50;;;;;;;6.43;2.67;;;6.20;99.90;;;;;;5052929;28;20083;-64
2022/11/27 01:04:16;;;;;;;4.68;2.30;;;6.20;99.90;;;;;;5053330;28;20037;-65
2022/11/27 01:06:46;;;;;;;8.02;2.22;;;6.20;99.90;;;;;;5035497;28;20052;-65
2022/11/27 01:09:12;;;;;;;7.90;2.97;;;6.10;99.90;;;;;;5053301;28;20044;-65
2022/11/27 01:11:39;;;;;;;8.20;1.63;;;6.10;99.90;;;;;;5053165;28;20502;-65
2022/11/27 01:14:09;;;;;;;5.43;1.90;;;6.10;99.90;;;;;;5053232;28;20041;-65
2022/11/27 01:16:36;;;;;;;5.05;2.33;;;6.00;99.90;;;;;;5053208;28;20091;-65
2022/11/27 01:19:03;;;;;;;4.38;1.85;;;6.60;99.90;;;;;;5053196;28;20037;-65
2022/11/27 01:21:31;;;;;;;10.88;2.80;;;5.90;99.90;;;;;;5052877;28;20048;-65
2022/11/27 01:23:57;;;;;;;4.47;1.95;;;5.90;99.90;;;;;;5053212;28;20396;-65
2022/11/27 01:26:24;;;;;;;6.97;3.40;;;5.90;99.90;;;;;;5035017;28;20041;-65
2022/11/27 01:28:54;;;;;;;4.68;2.20;;;5.90;99.90;;;;;;5052824;28;20029;-64
2022/11/27 01:31:23;;;;;;;7.07;2.80;;;5.80;99.90;;;;;;5035294;28;20037;-65
2022/11/27 01:33:54;;;;;;;6.05;2.25;;;5.80;99.90;;;;;;5056520;28;20171;-64
2022/11/27 01:36:21;;;;;;;4.63;2.50;;;5.80;99.90;;;;;;5056675;28;20120;-65
2022/11/27 01:38:46;;;;;;;6.40;2.47;;;6.50;99.90;;;;;;5057001;28;20033;-65
2022/11/27 01:41:15;;;;;;;6.82;2.45;;;5.70;99.90;;;;;;5056842;28;20041;-64
2022/11/27 01:43:48;;;;;;;8.68;2.78;;;5.80;99.90;;;;;;5056520;28;20045;-64
2022/11/27 01:46:37;;;;;;;6.30;2.33;;;5.70;99.90;;;;;;5056403;28;20041;-65
2022/11/27 01:49:09;;;;;;;10.60;2.80;;;5.70;99.90;;;;;;5056448;28;20128;-64
2022/11/27 01:51:45;;;;;;;8.40;2.63;;;6.30;99.90;;;;;;5056347;28;20048;-65
2022/11/27 01:54:12;;;;;;;3.90;2.28;;;5.70;99.90;;;;;;5056667;28;20499;-65
2022/11/27 01:56:40;;;;;;;3.05;1.80;;;6.50;99.90;;;;;;5056280;28;20124;-65
2022/11/27 01:59:06;;;;;;;5.30;2.45;;;5.70;99.90;;;;;;5056572;28;20036;-65
2022/11/27 02:01:32;;;;;;;7.90;2.67;;;5.60;99.90;;;;;;5056181;28;20103;-65
2022/11/27 02:03:59;;;;;;;7.35;3.97;;;5.60;99.90;;;;;;5056159;28;20049;-65
2022/11/27 02:06:25;;;;;;;6.95;2.85;;;5.60;99.90;;;;;;5056387;28;20102;-65
2022/11/27 02:08:52;;;;;;;9.30;3.47;;;6.00;99.90;;;;;;5038222;28;20566;-65
2022/11/27 02:11:27;;;;;;;8.35;2.17;;;5.50;99.90;;;;;;5055981;28;20077;-64
2022/11/27 02:14:09;;;;;;;6.32;2.80;;;5.70;99.90;;;;;;5055926;28;20041;-65
2022/11/27 02:16:51;;;;;;;10.70;3.35;;;5.90;99.90;;;;;;5038169;28;20037;-64
2022/11/27 02:20:02;;;;;;;9.18;2.88;;;5.50;99.90;;;;;;5056439;28;20153;-65
2022/11/27 02:22:52;;;;;;;5.28;2.47;;;5.50;99.90;;;;;;5045536;28;20068;-64
2022/11/27 02:25:36;;;;;;;6.65;2.78;;;5.40;99.90;;;;;;5055842;28;20040;-65
2022/11/27 02:28:24;;;;;;;8.75;3.15;;;5.50;99.90;;;;;;5055793;28;20045;-64
2022/11/27 02:30:59;;;;;;;5.65;2.65;;;5.50;99.90;;;;;;5055973;28;20447;-64
2022/11/27 02:33:28;;;;;;;6.47;2.65;;;5.50;99.90;;;;;;5055900;28;20107;-64
2022/11/27 02:36:05;;;;;;;5.65;2.50;;;5.90;99.90;;;;;;5055916;28;20037;-65
2022/11/27 02:38:38;;;;;;;10.90;2.90;;;5.40;99.90;;;;;;5055841;28;20048;-65
2022/11/27 02:41:13;;;;;;;5.20;2.58;;;5.80;99.90;;;;;;5055489;28;20060;-65
2022/11/27 02:43:46;;;;;;;9.75;2.83;;;5.40;99.90;;;;;;5054672;28;20041;-64
2022/11/27 02:46:13;;;;;;;7.32;3.53;;;5.90;99.90;;;;;;5037742;28;20539;-65
2022/11/27 02:48:50;;;;;;;6.22;3.03;;;5.40;99.90;;;;;;5055671;28;20037;-65
2022/11/27 02:51:20;;;;;;;8.15;3.17;;;5.40;99.90;;;;;;5037508;28;20377;-64
2022/11/27 02:53:51;;;;;;;7.75;2.60;;;5.50;99.90;;;;;;5055617;28;20036;-64
2022/11/27 02:56:21;;;;;;;9.60;2.25;;;5.50;99.90;;;;;;5055493;28;20040;-65
2022/11/27 02:58:49;;;;;;;8.68;3.35;;;5.90;99.90;;;;;;5055390;28;20361;-65
2022/11/27 03:01:18;;;;;;;4.53;2.70;;;5.50;99.90;;;;;;5054872;28;20150;-64
2022/11/27 03:03:51;;;;;;;6.38;2.85;;;5.50;99.90;;;;;;5037340;28;20088;-65
2022/11/27 03:06:23;;;;;;;9.57;3.25;;;5.50;99.90;;;;;;5037563;28;20411;-65
2022/11/27 03:08:56;;;;;;;7.75;2.42;;;5.60;99.90;;;;;;5055343;28;20122;-64
2022/11/27 03:11:22;;;;;;;8.30;2.97;;;5.40;99.90;;;;;;5037059;28;20059;-65
2022/11/27 03:13:52;;;;;;;14.48;2.88;;;5.40;99.90;;;;;;5055202;28;20041;-65
2022/11/27 03:16:37;;;;;;;6.78;3.10;;;5.50;99.90;;;;;;5055140;28;20029;-65
2022/11/27 03:19:17;;;;;;;12.02;2.90;;;5.40;99.90;;;;;;5036902;28;20053;-65
2022/11/27 03:21:49;;;;;;;5.18;2.60;;;5.40;99.90;;;;;;5054779;28;20048;-64
2022/11/27 03:24:15;;;;;;;6.30;2.92;;;5.50;99.90;;;;;;5055001;28;20055;-65
2022/11/27 03:26:42;;;;;;;7.38;2.83;;;5.40;99.90;;;;;;5037004;28;20539;-65
2022/11/27 03:29:13;;;;;;;4.55;2.58;;;5.40;99.90;;;;;;5036736;28;20066;-65
2022/11/27 03:31:39;;;;;;;;;;;5.40;99.90;;;;;;5037222;28;20051;-65
2022/11/27 03:34:05;;;;;;;4.28;2.30;;;5.40;99.90;;;;;;5054791;28;20011;-65
2022/11/27 03:36:31;;;;;;;3.53;2.50;;;5.40;99.90;;;;;;5054701;28;20120;-65
2022/11/27 03:38:56;;;;;;;5.47;2.33;;;5.50;99.90;;;;;;5054728;28;20051;-65
2022/11/27 03:42:19;;;;;;;8.52;3.17;;;5.40;99.90;;;;;;5054582;28;20037;-64
2022/11/27 03:44:51;;;;;;;5.22;2.70;;;5.40;99.90;;;;;;5012562;28;20054;-65
2022/11/27 03:47:25;;;;;;;4.55;1.75;;;5.40;99.90;;;;;;5012467;28;20045;-65
2022/11/27 03:50:02;;;;;;;5.35;3.08;;;5.40;99.90;;;;;;5041143;28;20049;-65
2022/11/27 03:52:52;;;;;;;3.22;2.28;;;5.40;99.90;;;;;;5054100;28;20149;-65
2022/11/27 03:55:18;;;;;;;4.03;2.30;;;5.40;99.90;;;;;;5054354;28;20484;-65
2022/11/27 03:57:44;;;;;;;5.05;2.47;;;5.40;99.90;;;;;;5054279;28;20052;-65
2022/11/27 04:00:10;;;;;;;8.25;2.05;;;5.40;99.90;;;;;;5054137;28;20427;-65
2022/11/27 04:02:45;;;;;;;4.22;2.28;;;5.40;99.90;;;;;;5054269;28;20048;-66
2022/11/27 04:05:12;;;;;;;7.22;2.20;;;5.40;99.90;;;;;;5054175;28;20044;-65
2022/11/27 04:07:38;;;;;;;8.23;2.50;;;6.10;99.90;;;;;;5054217;28;20037;-65
2022/11/27 04:10:05;;;;;;;5.57;2.22;;;5.40;99.90;;;;;;5054116;28;20073;-64
2022/11/27 04:12:31;;;;;;;5.93;1.67;;;5.40;99.90;;;;;;5053930;28;20041;-64
2022/11/27 04:14:56;;;;;;;5.65;2.13;;;5.40;99.90;;;;;;5054071;28;20033;-65
2022/11/27 04:17:22;;;;;;;5.57;1.77;;;5.40;99.90;;;;;;5054012;28;20036;-65
2022/11/27 04:19:48;;;;;;;8.20;2.88;;;5.40;99.90;;;;;;5053641;28;20041;-65
2022/11/27 04:22:14;;;;;;;6.40;2.17;;;5.40;99.90;;;;;;5053679;28;20087;-65
2022/11/27 04:24:40;;;;;;;5.65;2.60;;;5.60;99.90;;;;;;5053625;28;20094;-64
2022/11/27 04:27:06;;;;;;;4.35;1.92;;;5.40;99.90;;;;;;5053842;28;20041;-64
2022/11/27 04:29:31;;;;;;;5.80;2.25;;;5.40;99.90;;;;;;5053773;28;20395;-65
2022/11/27 04:31:57;;;;;;;8.73;1.98;;;5.40;99.90;;;;;;5019221;28;20404;-64
2022/11/27 04:34:22;;;;;;;13.95;3.03;;;5.40;99.90;;;;;;5053523;28;20512;-64
2022/11/27 04:36:48;;;;;;;11.68;3.30;;;5.40;99.90;;;;;;5053361;28;20127;-65
2022/11/27 04:39:14;;;;;;;6.32;2.20;;;5.40;99.90;;;;;;5053601;28;20033;-65
2022/11/27 04:41:40;;;;;;;8.05;2.60;;;5.40;99.90;;;;;;5053638;28;20037;-64
2022/11/27 04:44:05;;;;;;;3.03;1.90;;;5.40;99.90;;;;;;5053583;28;20048;-65
2022/11/27 04:46:32;;;;;;;7.10;2.00;;;5.40;99.90;;;;;;5053512;28;20037;-64
2022/11/27 04:48:57;;;;;;;4.43;2.08;;;5.70;99.90;;;;;;5053190;28;20076;-65
2022/11/27 04:51:23;;;;;;;2.80;1.67;;;5.40;99.90;;;;;;5035291;28;20198;-65
2022/11/27 04:53:49;;;;;;;5.00;2.28;;;5.40;99.90;;;;;;5053441;28;20472;-65
2022/11/27 04:56:15;;;;;;;3.45;1.52;;;5.40;99.90;;;;;;5053068;28;20167;-64
2022/11/27 04:58:41;;;;;;;8.90;2.10;;;6.10;99.90;;;;;;5035590;28;20051;-65
2022/11/27 05:01:08;;;;;;;7.95;1.98;;;5.70;99.90;;;;;;5053076;28;20057;-65
2022/11/27 05:03:34;;;;;;;7.05;1.80;;;5.40;99.90;;;;;;5053033;28;20095;-64
2022/11/27 05:06:00;;;;;;;3.50;1.85;;;5.40;99.90;;;;;;5018992;28;20033;-64
2022/11/27 05:08:29;;;;;;;6.70;2.10;;;5.50;99.90;;;;;;5058391;28;20047;-65
2022/11/27 05:11:02;;;;;;;3.05;1.58;;;5.30;99.90;;;;;;5059846;28;20047;-64
2022/11/27 05:13:28;;;;;;;9.40;2.58;;;5.30;99.90;;;;;;5059880;28;20037;-65
2022/11/27 05:15:54;;;;;;;7.25;2.17;;;5.30;99.90;;;;;;5059895;28;20033;-65
2022/11/27 05:18:19;;;;;;;4.57;2.30;;;5.30;99.90;;;;;;5059548;28;20037;-65
2022/11/27 05:20:45;;;;;;;3.38;1.35;;;5.30;99.90;;;;;;5059908;28;20040;-64
2022/11/27 05:23:11;;;;;;;6.05;2.75;;;5.30;99.90;;;;;;5059786;28;20052;-65
2022/11/27 05:25:36;;;;;;;11.95;1.98;;;5.30;99.90;;;;;;5041521;28;20049;-64
2022/11/27 05:28:02;;;;;;;5.75;1.77;;;5.30;99.90;;;;;;5059806;28;20041;-65
2022/11/27 05:30:28;;;;;;;4.30;1.50;;;5.30;99.90;;;;;;5059360;28;20040;-64
2022/11/27 05:32:53;;;;;;;3.97;1.63;;;5.30;99.90;;;;;;5059431;28;20040;-64
2022/11/27 05:35:19;;;;;;;7.43;2.17;;;5.20;99.90;;;;;;5059420;28;20036;-65
2022/11/27 05:37:44;;;;;;;5.60;2.35;;;5.30;99.90;;;;;;5059689;28;20124;-65
2022/11/27 05:40:10;;;;;;;3.05;1.75;;;5.20;99.90;;;;;;5059704;28;20464;-64
2022/11/27 05:42:36;;;;;;;3.13;1.70;;;5.20;99.90;;;;;;5059744;28;20037;-64
2022/11/27 05:45:04;;;;;;;5.20;1.88;;;5.20;99.90;;;;;;5059629;28;20041;-65
2022/11/27 05:47:29;;;;;;;3.78;1.65;;;5.20;99.90;;;;;;5059556;28;20051;-65
2022/11/27 05:49:55;;;;;;;7.35;2.45;;;5.20;99.90;;;;;;5059636;28;20422;-65
2022/11/27 05:52:21;;;;;;;3.13;1.42;;;5.20;99.90;;;;;;5059509;28;20045;-64
2022/11/27 05:54:46;;;;;;;3.83;1.88;;;5.80;99.90;;;;;;5059598;28;20037;-65
2022/11/27 05:57:12;;;;;;;3.00;1.80;;;5.20;99.90;;;;;;5059519;28;20514;-65
2022/11/27 05:59:38;;;;;;;7.57;1.80;;;5.10;99.90;;;;;;5041348;28;20098;-65
2022/11/27 06:02:03;;;;;;;1.90;1.27;;;5.20;99.90;;;;;;5059136;28;20511;-65
2022/11/27 06:04:33;;;;;;;10.05;2.50;;;5.20;99.90;;;;;;5059199;28;20519;-64
2022/11/27 06:06:59;;;;;;;2.20;1.17;;;5.10;99.90;;;;;;5059456;28;20041;-65
2022/11/27 06:09:25;;;;;;;4.93;1.95;;;5.10;99.90;;;;;;5059468;28;20515;-65
2022/11/27 06:11:50;;;;;;;3.33;1.83;;;5.10;99.90;;;;;;5041260;28;20128;-65
2022/11/27 06:14:16;;;;;;;4.13;1.50;;;5.10;99.90;;;;;;5041220;28;20049;-65
2022/11/27 06:16:42;;;;;;;4.63;1.85;;;5.60;99.90;;;;;;5041214;28;20041;-65
2022/11/27 06:19:08;;;;;;;3.65;1.60;;;5.10;99.90;;;;;;5038215;28;20037;-65
2022/11/27 06:21:33;;;;;;;4.53;2.13;;;5.10;99.90;;;;;;5055867;28;20392;-65
2022/11/27 06:23:59;;;;;;;8.13;2.15;;;5.10;99.90;;;;;;5056097;28;20040;-64
2022/11/27 06:26:28;;;;;;;7.90;2.72;;;5.10;99.90;;;;;;5056072;28;20036;-64
2022/11/27 06:28:55;;;;;;;4.90;1.70;;;5.70;99.90;;;;;;5037913;28;20080;-64
2022/11/27 06:31:24;;;;;;;3.22;1.50;;;5.10;99.90;;;;;;5055915;28;20451;-64
2022/11/27 06:33:52;;;;;;;2.97;1.85;;;5.10;99.90;;;;;;5056033;28;20033;-64
2022/11/27 06:36:18;;;;;;;3.17;1.52;;;5.10;99.90;;;;;;5038027;28;20488;-64
2022/11/27 06:38:45;;;;;;;3.33;1.80;;;5.90;99.90;;;;;;5055563;28;20041;-64
2022/11/27 06:41:17;;;;;;;4.45;2.42;;;5.20;99.90;;;;;;5055766;28;20104;-65
2022/11/27 06:43:43;;;;;;;6.57;2.17;;;5.10;99.90;;;;;;5055776;28;20395;-64
2022/11/27 06:46:14;;;;;;;5.93;2.03;;;5.10;99.90;;;;;;5038119;28;20048;-64
2022/11/27 06:48:40;;;;;;;2.70;1.58;;;5.10;99.90;;;;;;5037910;28;20051;-65
2022/11/27 06:51:07;;;;;;;3.17;1.00;;;5.10;99.90;;;;;;5020925;28;20048;-64
2022/11/27 06:53:35;;;;;;;4.03;1.98;;;5.10;99.90;;;;;;5055591;28;20480;-65
2022/11/27 06:56:23;;;;;;;3.22;1.48;;;5.10;99.90;;;;;;5055587;28;20045;-64
2022/11/27 06:58:54;;;;;;;4.80;1.80;;;5.10;99.90;;;;;;5055179;28;20036;-65
2022/11/27 07:01:21;;;;;;;4.28;1.90;;;5.10;99.90;;;;;;5036989;28;20061;-64
2022/11/27 07:03:47;;;;;;;2.78;1.55;;;5.10;99.90;;;;;;5037224;28;20045;-64
2022/11/27 07:06:14;;;;;;;3.72;2.08;;;5.10;99.90;;;;;;5054958;28;20037;-64
2022/11/27 07:08:40;;;;;;;2.90;2.30;;;5.10;99.90;;;;;;5054924;28;20098;-64
2022/11/27 07:11:12;;;;;;;3.83;1.60;;;5.10;99.90;;;;;;5055163;28;20048;-64
2022/11/27 07:13:37;;;;;;;4.35;2.13;;;5.10;99.90;;;;;;5037112;28;20049;-65
2022/11/27 07:16:06;;;;;;;2.67;1.92;;;5.10;99.90;;;;;;5037076;28;20560;-64
2022/11/27 07:18:37;;;;;;;3.53;1.73;;;5.10;99.90;;;;;;5037307;28;20040;-64
2022/11/27 07:21:03;;;;;;;2.45;1.55;;;5.10;99.90;;;;;;5036995;28;20059;-64
2022/11/27 07:23:29;;;;;;;4.28;1.92;;;5.10;99.90;;;;;;5036856;28;20087;-63
2022/11/27 07:25:56;;;;;;;3.20;2.13;;;5.10;99.90;;;;;;5037204;28;20507;-63
2022/11/27 07:28:22;;;;;;;1.92;1.27;;;5.20;99.90;;;;;;5054915;28;20080;-63
2022/11/27 07:30:55;;;;;;;4.18;1.70;;;5.10;99.90;;;;;;5036337;28;20051;-63
2022/11/27 07:33:22;;;;;;;7.68;2.25;;;5.20;99.90;;;;;;5054513;28;20146;-63
2022/11/27 07:35:48;;;;;;;6.00;2.25;;;5.20;99.90;;;;;;5054850;28;20040;-63
2022/11/27 07:38:14;;;;;;;4.13;1.85;;;5.20;99.90;;;;;;5054676;28;20116;-62
2022/11/27 07:40:39;;;;;;;6.38;2.13;;;5.30;99.90;;;;;;5036836;28;20064;-63
2022/11/27 07:43:05;;;;;;;2.92;1.38;;;5.20;99.90;;;;;;5054661;28;20048;-64
2022/11/27 07:45:30;;;;;;;3.92;1.90;;;5.20;99.90;;;;;;5020057;28;20045;-65
2022/11/27 07:47:56;;;;;;;4.30;2.08;;;5.20;99.90;;;;;;5054572;28;20536;-64
2022/11/27 07:50:22;;;;;;;12.13;3.00;;;5.20;99.90;;;;;;5054109;28;20146;-65
2022/11/27 07:52:47;;;;;;;6.90;2.35;;;5.30;99.90;;;;;;5054452;28;20068;-66
2022/11/27 07:55:13;;;;;;;3.90;1.55;;;5.30;99.90;;;;;;5054088;28;20033;-69
2022/11/27 07:57:39;;;;;;;4.47;1.92;;;5.30;99.90;;;;;;5054412;28;20033;-70
2022/11/27 08:00:05;;;;;;;4.50;2.03;;;5.30;99.90;;;;;;5053959;28;20506;-65
2022/11/27 08:02:31;;;;;;;7.00;2.00;;;5.30;99.90;;;;;;5053960;28;20056;-64
2022/11/27 08:04:57;;;;;;;3.00;1.60;;;5.30;99.90;;;;;;5054332;28;20138;-65
2022/11/27 08:07:29;;;;;;;7.15;2.22;;;5.40;99.90;;;;;;5036484;28;20090;-64
2022/11/27 08:09:57;;;;;;;10.10;2.47;;;5.40;99.90;;;;;;5036309;28;20484;-66
2022/11/27 08:12:23;;;;;;;4.45;1.98;;;5.40;99.90;;;;;;5054037;28;20395;-63
2022/11/27 08:14:49;;;;;;;5.72;2.85;;;5.80;99.90;;;;;;5054118;28;20045;-64
2022/11/27 08:17:15;;;;;;;3.67;2.10;;;5.40;99.90;;;;;;5054025;28;20083;-64
2022/11/27 08:19:40;;;;;;;4.30;2.30;;;5.50;99.90;;;;;;5036183;28;20044;-63
2022/11/27 08:22:14;;;;;;;6.75;2.65;;;5.50;99.90;;;;;;5053624;28;20052;-64
2022/11/27 08:24:41;;;;;;;4.13;1.98;;;5.60;99.90;;;;;;5053811;28;20114;-64
2022/11/27 08:27:10;;;;;;;5.95;1.90;;;5.60;99.90;;;;;;5053754;28;20055;-64
2022/11/27 08:29:36;;;;;;;3.22;2.10;;;5.60;99.90;;;;;;5053427;28;20124;-63
2022/11/27 08:32:02;;;;;;;6.38;2.28;;;5.60;99.90;;;;;;5053670;28;20122;-64
2022/11/27 08:34:28;;;;;;;10.10;2.60;;;5.70;99.90;;;;;;5053681;28;20400;-64
2022/11/27 08:36:53;;;;;;;3.80;1.90;;;5.70;99.90;;;;;;5019048;28;20041;-64
2022/11/27 08:39:19;;;;;;;7.15;1.88;;;5.70;99.90;;;;;;5053518;28;20484;-64
2022/11/27 08:41:45;;;;;;;2.85;2.13;;;5.70;99.90;;;;;;5052592;28;20511;-64
2022/11/27 08:44:10;;;;;;;4.55;1.92;;;5.70;99.90;;;;;;5053514;28;20076;-64
2022/11/27 08:46:36;;;;;;;5.85;2.38;;;5.70;99.90;;;;;;5053464;28;20090;-65
2022/11/27 08:49:02;;;;;;;7.20;2.20;;;5.70;99.90;;;;;;5053418;28;20047;-64
2022/11/27 08:51:27;;;;;;;3.50;1.85;;;5.70;99.90;;;;;;5018853;28;20119;-70
2022/11/27 08:53:53;;;;;;;8.75;2.70;;;5.70;99.90;;;;;;5035319;28;20033;-71
2022/11/27 08:56:24;;;;;;;6.45;2.50;;;5.70;99.90;;;;;;5035163;28;20041;-71
2022/11/27 08:58:50;;;;;;;11.52;3.08;;;5.80;99.90;;;;;;5035211;28;20049;-71
2022/11/27 09:01:18;;;;;;;5.28;1.95;;;6.30;99.90;;;;;;5034916;28;20096;-70
2022/11/27 09:03:44;;;;;;;9.13;2.58;;;5.80;99.90;;;;;;5035398;28;20045;-70
2022/11/27 09:06:12;;;;;;;5.90;2.50;;;5.80;99.90;;;;;;5035143;28;20059;-70
2022/11/27 09:08:40;;;;;;;6.22;1.70;;;5.80;99.90;;;;;;5053213;28;20041;-70
2022/11/27 09:11:06;;;;;;;9.20;2.67;;;5.80;99.90;;;;;;5035225;28;20403;-71
2022/11/27 09:13:35;;;;;;;6.93;2.85;;;5.80;99.90;;;;;;5035025;28;20044;-71
2022/11/27 09:16:02;;;;;;;6.50;2.50;;;5.80;99.90;;;;;;5035005;28;20045;-71
2022/11/27 09:18:27;;;;;;;3.92;1.95;;;5.80;99.90;;;;;;5034937;28;20120;-70
2022/11/27 09:21:03;;;;;;;5.47;2.15;;;5.80;99.90;;;;;;5002176;28;20456;-71
2022/11/27 09:23:29;;;;;;;3.70;1.92;;;5.80;99.90;;;;;;5035068;28;20064;-71
2022/11/27 09:26:02;;;;;;;2.83;2.03;;;5.80;99.90;;;;;;5034909;28;20448;-71
2022/11/27 09:28:28;;;;;;;4.78;1.95;;;5.80;99.90;;;;;;5035262;28;20517;-71
2022/11/27 09:30:56;;;;;;;6.63;2.22;;;5.80;99.90;;;;;;5035198;28;20041;-71
2022/11/27 09:33:23;;;;;;;3.40;1.85;;;5.80;99.90;;;;;;5034961;28;20044;-72
2022/11/27 09:35:49;;;;;;;7.28;2.28;;;5.80;99.90;;;;;;5034931;28;20059;-72
2022/11/27 09:38:15;;;;;;;5.05;2.67;;;6.20;99.90;;;;;;5034890;28;20124;-71
2022/11/27 09:40:48;;;;;;;3.72;1.90;;;5.80;99.90;;;;;;5018502;28;20476;-63
2022/11/27 09:43:16;;;;;;;8.23;2.60;;;5.80;99.90;;;;;;5053037;28;20091;-63
2022/11/27 09:45:48;;;;;;;5.10;2.45;;;5.80;99.90;;;;;;5052951;28;20041;-64
2022/11/27 09:48:40;;;;;;;9.32;2.80;;;5.80;99.90;;;;;;5052619;28;20041;-64
2022/11/27 09:51:11;;;;;;;;;;;5.80;99.90;;;;;;5052521;28;20106;-64
2022/11/27 09:54:10;;;;;;;4.90;2.05;;;5.80;99.90;;;;;;5054426;28;19924;-63
2022/11/27 09:56:36;;;;;;;8.32;2.58;;;5.80;99.90;;;;;;5056058;28;20041;-63
2022/11/27 09:59:04;;;;;;;5.00;2.42;;;6.50;99.90;;;;;;5056491;28;20391;-63
2022/11/27 10:01:32;;;;;;;3.92;2.17;;;5.80;99.90;;;;;;5056287;28;20840;-63
2022/11/27 10:04:00;;;;;;;3.78;2.20;;;5.80;99.90;;;;;;5056265;28;20179;-67
2022/11/27 10:07:11;;;;;;;3.08;2.15;;;5.80;99.90;;;;;;5056513;28;20059;-64
2022/11/27 10:09:51;;;;;;;4.85;2.25;;;5.70;99.90;;;;;;5056499;28;20045;-64
2022/11/27 10:12:32;;;;;;;4.50;2.23;;;5.80;99.90;;;;;;5056323;28;20049;-64
2022/11/27 10:15:20;;;;;;;6.70;2.72;;;5.70;99.90;;;;;;5056388;28;20049;-62
2022/11/27 10:17:59;;;;;;;7.75;2.45;;;5.80;99.90;;;;;;5056308;28;20116;-63
2022/11/27 10:20:42;;;;;;;9.52;2.85;;;6.00;99.90;;;;;;5056211;28;20032;-63
2022/11/27 10:23:45;;;;;;;6.07;2.42;;;5.80;99.90;;;;;;5038295;28;20439;-64
2022/11/27 10:26:18;;;;;;;5.65;2.28;;;5.70;99.90;;;;;;5053350;28;20061;-62
2022/11/27 10:29:00;;;;;;;4.47;2.35;;;5.80;99.90;;;;;;5056044;28;20043;-63
2022/11/27 10:31:34;;;;;;;4.90;2.03;;;5.80;99.90;;;;;;5037752;28;20041;-65
2022/11/27 10:34:04;;;;;;;4.38;1.73;;;5.80;99.90;;;;;;5037821;28;20040;-64
2022/11/27 10:36:40;;;;;;;3.80;2.22;;;5.80;99.90;;;;;;5055922;28;20479;-63
2022/11/27 10:39:15;;;;;;;4.10;2.25;;;5.90;99.90;;;;;;5055907;28;20448;-63
2022/11/27 10:41:50;;;;;;;4.10;2.22;;;5.80;99.90;;;;;;5055470;28;20132;-63
2022/11/27 10:44:25;;;;;;;4.70;2.85;;;6.00;99.90;;;;;;5055504;28;20087;-63
2022/11/27 10:46:56;;;;;;;5.13;2.40;;;5.80;99.90;;;;;;5055498;28;20032;-63
2022/11/27 10:49:22;;;;;;;4.20;2.58;;;5.80;99.90;;;;;;5055686;28;20048;-63
2022/11/27 10:51:47;;;;;;;6.43;2.55;;;5.80;99.90;;;;;;5055568;28;20041;-63
2022/11/27 10:54:41;;;;;;;4.22;2.10;;;5.70;99.90;;;;;;5055530;28;20037;-62
2022/11/27 10:57:25;;;;;;;10.18;2.65;;;5.70;99.90;;;;;;5054719;28;20045;-63
2022/11/27 11:00:13;;;;;;;7.05;2.42;;;5.80;99.90;;;;;;5055145;28;20049;-62
2022/11/27 11:02:39;;;;;;;8.40;2.53;;;5.70;99.90;;;;;;5054997;28;20053;-63
2022/11/27 11:05:18;;;;;;;4.25;2.42;;;5.90;99.90;;;;;;5036829;28;20502;-63
2022/11/27 11:07:58;;;;;;;4.15;2.17;;;5.80;99.90;;;;;;5055349;28;20090;-63
2022/11/27 11:10:28;;;;;;;5.22;3.05;;;5.80;99.90;;;;;;5055332;28;20051;-63
2022/11/27 11:13:15;;;;;;;7.22;3.13;;;5.80;99.90;;;;;;5055262;28;20514;-63
2022/11/27 11:16:02;;;;;;;6.53;3.50;;;5.80;99.90;;;;;;5055243;28;20048;-63
2022/11/27 11:18:32;;;;;;;6.10;2.40;;;5.80;99.90;;;;;;5055111;28;20029;-63
2022/11/27 11:21:01;;;;;;;5.68;2.70;;;5.80;99.90;;;;;;5055198;28;20114;-64
2022/11/27 11:23:39;;;;;;;4.63;2.63;;;6.10;99.90;;;;;;5055100;28;20455;-63
2022/11/27 11:26:30;;;;;;;6.35;2.55;;;5.80;99.90;;;;;;5054594;28;20044;-63
2022/11/27 11:28:58;;;;;;;5.75;2.70;;;5.80;99.90;;;;;;5054958;28;20120;-63
2022/11/27 11:31:36;;;;;;;4.38;2.53;;;5.80;99.90;;;;;;5036753;28;20106;-63
2022/11/27 11:34:13;;;;;;;11.35;3.67;;;5.80;99.90;;;;;;5054801;28;20150;-63
2022/11/27 11:36:40;;;;;;;4.55;2.78;;;5.80;99.90;;;;;;5036728;28;20048;-63
2022/11/27 11:39:06;;;;;;;6.18;3.03;;;5.90;99.90;;;;;;5054770;28;20043;-63
2022/11/27 11:41:37;;;;;;;6.22;2.65;;;5.80;99.90;;;;;;5054370;28;20459;-63
2022/11/27 11:44:03;;;;;;;5.43;2.50;;;5.90;99.90;;;;;;5054678;28;20040;-62
2022/11/27 11:46:32;;;;;;;5.80;3.00;;;5.80;99.90;;;;;;5054341;28;20163;-63
2022/11/27 11:49:18;;;;;;;5.65;3.00;;;5.90;99.90;;;;;;5054239;28;20388;-63
2022/11/27 11:52:08;;;;;;;5.68;2.67;;;5.90;99.90;;;;;;5054347;28;20045;-61
2022/11/27 11:55:11;;;;;;;6.03;3.05;;;5.90;99.90;;;;;;5053990;28;20033;-63
2022/11/27 11:57:52;;;;;;;7.20;3.22;;;5.90;99.90;;;;;;5054306;28;20446;-63
2022/11/27 12:00:21;;;;;;;4.30;2.25;;;5.90;99.90;;;;;;5053951;28;20171;-63
2022/11/27 12:03:05;;;;;;;7.03;2.88;;;5.90;99.90;;;;;;5053831;28;20068;-63
2022/11/27 12:05:34;;;;;;;3.95;2.03;;;5.90;99.90;;;;;;5054184;28;20075;-63
2022/11/27 12:08:28;;;;;;;12.13;3.45;;;5.90;99.90;;;;;;5054153;28;20196;-65
2022/11/27 12:10:56;;;;;;;6.55;2.65;;;5.90;99.90;;;;;;5036063;28;20055;-64
2022/11/27 12:13:55;;;;;;;3.97;2.40;;;6.10;99.90;;;;;;5053886;28;20097;-65
2022/11/27 12:16:44;;;;;;;12.20;3.78;;;6.00;99.90;;;;;;5053448;28;20077;-64
2022/11/27 12:19:32;;;;;;;8.05;2.90;;;6.00;99.90;;;;;;5054059;28;20072;-65
2022/11/27 12:22:13;;;;;;;6.68;3.05;;;6.00;99.90;;;;;;5054001;28;20037;-64
2022/11/27 12:25:14;;;;;;;4.97;2.50;;;6.00;99.90;;;;;;5054002;28;20116;-63
2022/11/27 12:27:56;;;;;;;;;;;6.10;99.90;;;;;;5054012;28;20134;-63
2022/11/27 12:30:25;;;;;;;6.50;2.58;;;6.10;99.90;;;;;;5053893;28;19921;-65
2022/11/27 12:33:12;;;;;;;7.13;3.67;;;6.10;99.90;;;;;;5053668;28;20049;-64
2022/11/27 12:35:50;;;;;;;5.63;3.30;;;6.10;99.90;;;;;;5053485;28;20037;-64
2022/11/27 12:38:26;;;;;;;5.25;2.80;;;6.20;99.90;;;;;;5053428;28;20063;-64
2022/11/27 12:41:11;;;;;;;6.70;3.03;;;6.10;99.90;;;;;;5053699;28;20045;-64
2022/11/27 12:43:42;;;;;;;5.28;3.25;;;6.20;99.90;;;;;;5053707;28;20488;-64
2022/11/27 12:46:40;;;;;;;7.57;3.35;;;6.40;99.90;;;;;;5053651;28;20045;-64
2022/11/27 12:49:12;;;;;;;5.22;3.20;;;6.20;99.90;;;;;;5050185;28;20052;-64
2022/11/27 12:51:49;;;;;;;4.78;3.25;;;6.20;99.90;;;;;;5053199;28;20045;-64
2022/11/27 12:54:27;;;;;;;5.93;3.50;;;6.20;99.90;;;;;;5053136;28;20037;-64
2022/11/27 12:57:00;;;;;;;6.82;3.05;;;6.20;99.90;;;;;;5053476;28;20060;-64
2022/11/27 12:59:32;;;;;;;5.10;2.83;;;6.20;99.90;;;;;;5053190;28;20037;-65
2022/11/27 13:02:39;;;;;;;5.85;2.63;;;6.30;99.90;;;;;;5052793;28;20057;-65
2022/11/27 13:05:27;;;;;;;8.02;3.33;;;6.20;99.90;;;;;;5053363;28;20398;-64
2022/11/27 13:08:01;;;;;;;7.15;2.97;;;6.30;99.90;;;;;;5053333;28;20033;-64
2022/11/27 13:10:35;;;;;;;4.20;2.33;;;6.20;99.90;;;;;;5053285;28;20076;-64
2022/11/27 13:13:15;;;;;;;11.45;2.63;;;6.20;99.90;;;;;;5035184;28;20053;-64
2022/11/27 13:15:54;;;;;;;4.32;2.88;;;6.20;99.90;;;;;;5053399;28;20543;-65
2022/11/27 13:18:40;;;;;;;6.00;3.17;;;6.20;99.90;;;;;;5052969;28;20213;-64